sensor_id;sensor_type;location;lat;lon;timestamp;temperature;humidity
75987;DHT22;75291;44.670;37.810;2024-03-02T00:00:28;9.30;35.12
75987;DHT22;75291;44.670;37.810;2024-03-02T00:01:33;9.25;34.91
75987;DHT22;75291;44.670;37.810;2024-03-02T00:02:44;9.19;35.44
75987;DHT22;75291;44.670;37.810;2024-03-02T00:03:49;9.19;35.34
75987;DHT22;75291;44.670;37.810;2024-03-02T00:04:54;9.16;35.42
75987;DHT22;75291;44.670;37.810;2024-03-02T00:05:58;9.15;35.30
75987;DHT22;75291;44.670;37.810;2024-03-02T00:07:03;9.14;35.85
75987;DHT22;75291;44.670;37.810;2024-03-02T00:08:08;9.12;35.39
75987;DHT22;75291;44.670;37.810;2024-03-02T00:09:15;9.12;35.33
75987;DHT22;75291;44.670;37.810;2024-03-02T00:10:22;9.10;35.63
75987;DHT22;75291;44.670;37.810;2024-03-02T00:11:35;9.10;35.28
75987;DHT22;75291;44.670;37.810;2024-03-02T00:12:41;9.08;35.56
75987;DHT22;75291;44.670;37.810;2024-03-02T00:13:45;9.08;35.82
75987;DHT22;75291;44.670;37.810;2024-03-02T00:14:51;9.07;35.64
75987;DHT22;75291;44.670;37.810;2024-03-02T00:15:57;9.07;36.30
75987;DHT22;75291;44.670;37.810;2024-03-02T00:17:02;9.05;36.02
75987;DHT22;75291;44.670;37.810;2024-03-02T00:18:07;9.05;36.02
75987;DHT22;75291;44.670;37.810;2024-03-02T00:19:12;9.05;36.14
75987;DHT22;75291;44.670;37.810;2024-03-02T00:20:18;9.09;36.69
75987;DHT22;75291;44.670;37.810;2024-03-02T00:21:26;9.11;36.00
75987;DHT22;75291;44.670;37.810;2024-03-02T00:22:31;9.14;34.76
75987;DHT22;75291;44.670;37.810;2024-03-02T00:23:36;9.18;33.92
75987;DHT22;75291;44.670;37.810;2024-03-02T00:24:40;9.18;35.73
75987;DHT22;75291;44.670;37.810;2024-03-02T00:25:48;9.21;39.05
75987;DHT22;75291;44.670;37.810;2024-03-02T00:26:52;9.20;36.15
75987;DHT22;75291;44.670;37.810;2024-03-02T00:27:56;9.21;37.95
75987;DHT22;75291;44.670;37.810;2024-03-02T00:29:01;9.22;34.34
75987;DHT22;75291;44.670;37.810;2024-03-02T00:30:57;9.22;36.87
75987;DHT22;75291;44.670;37.810;2024-03-02T00:32:02;9.23;34.49
75987;DHT22;75291;44.670;37.810;2024-03-02T00:33:07;9.23;35.96
75987;DHT22;75291;44.670;37.810;2024-03-02T00:34:13;9.27;33.28
75987;DHT22;75291;44.670;37.810;2024-03-02T00:35:20;9.32;34.57
75987;DHT22;75291;44.670;37.810;2024-03-02T00:36:27;9.34;34.53
75987;DHT22;75291;44.670;37.810;2024-03-02T00:37:32;9.34;34.29
75987;DHT22;75291;44.670;37.810;2024-03-02T00:38:49;9.37;32.09
75987;DHT22;75291;44.670;37.810;2024-03-02T00:39:54;9.41;34.23
75987;DHT22;75291;44.670;37.810;2024-03-02T00:41:01;9.41;34.16
75987;DHT22;75291;44.670;37.810;2024-03-02T00:42:10;9.38;34.36
75987;DHT22;75291;44.670;37.810;2024-03-02T00:45:12;9.39;35.25
75987;DHT22;75291;44.670;37.810;2024-03-02T00:46:20;9.38;33.31
75987;DHT22;75291;44.670;37.810;2024-03-02T00:47:25;9.37;34.32
75987;DHT22;75291;44.670;37.810;2024-03-02T00:48:30;9.38;34.63
75987;DHT22;75291;44.670;37.810;2024-03-02T00:49:41;9.35;34.16
75987;DHT22;75291;44.670;37.810;2024-03-02T00:50:46;9.37;33.31
75987;DHT22;75291;44.670;37.810;2024-03-02T00:51:52;9.34;34.31
75987;DHT22;75291;44.670;37.810;2024-03-02T00:52:56;9.31;33.52
75987;DHT22;75291;44.670;37.810;2024-03-02T00:54:04;9.27;33.42
75987;DHT22;75291;44.670;37.810;2024-03-02T00:55:10;9.29;33.77
75987;DHT22;75291;44.670;37.810;2024-03-02T00:56:15;9.31;38.04
75987;DHT22;75291;44.670;37.810;2024-03-02T00:57:19;9.30;34.30
75987;DHT22;75291;44.670;37.810;2024-03-02T00:58:24;9.30;33.28
75987;DHT22;75291;44.670;37.810;2024-03-02T00:59:28;9.29;34.13
75987;DHT22;75291;44.670;37.810;2024-03-02T01:00:33;9.31;34.99
75987;DHT22;75291;44.670;37.810;2024-03-02T01:01:37;9.30;34.35
75987;DHT22;75291;44.670;37.810;2024-03-02T01:02:42;9.29;32.57
75987;DHT22;75291;44.670;37.810;2024-03-02T01:03:48;9.31;33.79
75987;DHT22;75291;44.670;37.810;2024-03-02T01:04:53;9.33;31.90
75987;DHT22;75291;44.670;37.810;2024-03-02T01:05:57;9.34;32.46
75987;DHT22;75291;44.670;37.810;2024-03-02T01:07:02;9.35;30.22
75987;DHT22;75291;44.670;37.810;2024-03-02T01:08:08;9.37;34.36
75987;DHT22;75291;44.670;37.810;2024-03-02T01:09:13;9.37;32.72
75987;DHT22;75291;44.670;37.810;2024-03-02T01:10:18;9.38;35.25
75987;DHT22;75291;44.670;37.810;2024-03-02T01:11:22;9.36;32.15
75987;DHT22;75291;44.670;37.810;2024-03-02T01:12:27;9.38;31.40
75987;DHT22;75291;44.670;37.810;2024-03-02T01:13:32;9.37;30.90
75987;DHT22;75291;44.670;37.810;2024-03-02T01:14:37;9.39;33.92
75987;DHT22;75291;44.670;37.810;2024-03-02T01:15:41;9.39;33.25
75987;DHT22;75291;44.670;37.810;2024-03-02T01:16:47;9.38;29.87
75987;DHT22;75291;44.670;37.810;2024-03-02T01:17:51;9.39;28.24
75987;DHT22;75291;44.670;37.810;2024-03-02T01:18:57;9.40;30.43
75987;DHT22;75291;44.670;37.810;2024-03-02T01:20:01;9.44;31.14
75987;DHT22;75291;44.670;37.810;2024-03-02T01:21:06;9.41;30.09
75987;DHT22;75291;44.670;37.810;2024-03-02T01:22:11;9.41;30.35
75987;DHT22;75291;44.670;37.810;2024-03-02T01:23:15;9.42;29.13
75987;DHT22;75291;44.670;37.810;2024-03-02T01:24:19;9.41;30.44
75987;DHT22;75291;44.670;37.810;2024-03-02T01:25:24;9.40;30.77
75987;DHT22;75291;44.670;37.810;2024-03-02T01:26:29;9.40;31.66
75987;DHT22;75291;44.670;37.810;2024-03-02T01:27:35;9.39;30.64
75987;DHT22;75291;44.670;37.810;2024-03-02T01:28:39;9.37;30.14
75987;DHT22;75291;44.670;37.810;2024-03-02T01:29:43;9.37;29.70
75987;DHT22;75291;44.670;37.810;2024-03-02T01:30:48;9.35;29.22
75987;DHT22;75291;44.670;37.810;2024-03-02T01:31:53;9.36;29.52
75987;DHT22;75291;44.670;37.810;2024-03-02T01:32:57;9.34;29.80
75987;DHT22;75291;44.670;37.810;2024-03-02T01:34:04;9.35;30.25
75987;DHT22;75291;44.670;37.810;2024-03-02T01:35:08;9.35;30.35
75987;DHT22;75291;44.670;37.810;2024-03-02T01:36:13;9.32;29.61
75987;DHT22;75291;44.670;37.810;2024-03-02T01:37:18;9.32;31.22
75987;DHT22;75291;44.670;37.810;2024-03-02T01:38:23;9.30;30.72
75987;DHT22;75291;44.670;37.810;2024-03-02T01:39:27;9.29;31.64
75987;DHT22;75291;44.670;37.810;2024-03-02T01:40:34;9.27;30.26
75987;DHT22;75291;44.670;37.810;2024-03-02T01:41:38;9.29;31.90
75987;DHT22;75291;44.670;37.810;2024-03-02T01:42:43;9.29;30.46
75987;DHT22;75291;44.670;37.810;2024-03-02T01:43:47;9.26;30.29
75987;DHT22;75291;44.670;37.810;2024-03-02T01:44:52;9.26;30.13
75987;DHT22;75291;44.670;37.810;2024-03-02T01:45:56;9.25;29.64
75987;DHT22;75291;44.670;37.810;2024-03-02T01:47:02;9.25;29.55
75987;DHT22;75291;44.670;37.810;2024-03-02T01:48:08;9.25;29.93
75987;DHT22;75291;44.670;37.810;2024-03-02T01:49:13;9.25;30.08
75987;DHT22;75291;44.670;37.810;2024-03-02T01:50:28;9.24;31.94
75987;DHT22;75291;44.670;37.810;2024-03-02T01:51:33;9.23;31.06
75987;DHT22;75291;44.670;37.810;2024-03-02T01:52:38;9.23;30.36
75987;DHT22;75291;44.670;37.810;2024-03-02T01:53:43;9.23;30.90
75987;DHT22;75291;44.670;37.810;2024-03-02T01:54:48;9.21;31.85
75987;DHT22;75291;44.670;37.810;2024-03-02T01:55:52;9.21;30.63
75987;DHT22;75291;44.670;37.810;2024-03-02T01:56:56;9.20;29.91
75987;DHT22;75291;44.670;37.810;2024-03-02T01:58:01;9.20;30.48
75987;DHT22;75291;44.670;37.810;2024-03-02T01:59:06;9.20;30.94
75987;DHT22;75291;44.670;37.810;2024-03-02T02:00:12;9.18;31.12
75987;DHT22;75291;44.670;37.810;2024-03-02T02:01:17;9.17;31.10
75987;DHT22;75291;44.670;37.810;2024-03-02T02:02:22;9.16;30.69
75987;DHT22;75291;44.670;37.810;2024-03-02T02:03:28;9.16;30.42
75987;DHT22;75291;44.670;37.810;2024-03-02T02:04:32;9.15;33.55
75987;DHT22;75291;44.670;37.810;2024-03-02T02:05:37;9.14;32.08
75987;DHT22;75291;44.670;37.810;2024-03-02T02:06:44;9.12;31.64
75987;DHT22;75291;44.670;37.810;2024-03-02T02:07:49;9.11;31.33
75987;DHT22;75291;44.670;37.810;2024-03-02T02:08:53;9.10;31.38
75987;DHT22;75291;44.670;37.810;2024-03-02T02:09:58;9.08;32.37
75987;DHT22;75291;44.670;37.810;2024-03-02T02:11:03;9.08;32.72
75987;DHT22;75291;44.670;37.810;2024-03-02T02:12:08;9.04;33.83
75987;DHT22;75291;44.670;37.810;2024-03-02T02:13:14;9.03;32.15
75987;DHT22;75291;44.670;37.810;2024-03-02T02:14:19;9.01;33.16
75987;DHT22;75291;44.670;37.810;2024-03-02T02:15:29;8.96;32.69
75987;DHT22;75291;44.670;37.810;2024-03-02T02:16:34;8.96;33.21
75987;DHT22;75291;44.670;37.810;2024-03-02T02:17:38;8.95;34.04
75987;DHT22;75291;44.670;37.810;2024-03-02T02:18:43;8.93;34.22
75987;DHT22;75291;44.670;37.810;2024-03-02T02:19:48;8.91;34.04
75987;DHT22;75291;44.670;37.810;2024-03-02T02:20:52;8.91;33.54
75987;DHT22;75291;44.670;37.810;2024-03-02T02:21:56;8.90;32.96
75987;DHT22;75291;44.670;37.810;2024-03-02T02:23:04;8.88;34.70
75987;DHT22;75291;44.670;37.810;2024-03-02T02:24:13;8.87;34.87
75987;DHT22;75291;44.670;37.810;2024-03-02T02:25:17;8.83;33.94
75987;DHT22;75291;44.670;37.810;2024-03-02T02:26:21;8.83;36.63
75987;DHT22;75291;44.670;37.810;2024-03-02T02:27:25;8.83;35.31
75987;DHT22;75291;44.670;37.810;2024-03-02T02:28:29;8.80;34.31
75987;DHT22;75291;44.670;37.810;2024-03-02T02:29:34;8.79;35.20
75987;DHT22;75291;44.670;37.810;2024-03-02T02:30:39;8.77;35.78
75987;DHT22;75291;44.670;37.810;2024-03-02T02:31:43;8.76;37.36
75987;DHT22;75291;44.670;37.810;2024-03-02T02:32:48;8.75;35.40
75987;DHT22;75291;44.670;37.810;2024-03-02T02:33:52;8.73;36.26
75987;DHT22;75291;44.670;37.810;2024-03-02T02:34:56;8.71;35.77
75987;DHT22;75291;44.670;37.810;2024-03-02T02:36:01;8.72;35.78
75987;DHT22;75291;44.670;37.810;2024-03-02T02:37:06;8.68;36.98
75987;DHT22;75291;44.670;37.810;2024-03-02T02:38:11;8.66;36.35
75987;DHT22;75291;44.670;37.810;2024-03-02T02:39:16;8.65;36.24
75987;DHT22;75291;44.670;37.810;2024-03-02T02:40:21;8.63;36.12
75987;DHT22;75291;44.670;37.810;2024-03-02T02:41:27;8.60;36.07
75987;DHT22;75291;44.670;37.810;2024-03-02T02:42:31;8.60;36.99
75987;DHT22;75291;44.670;37.810;2024-03-02T02:43:35;8.59;38.68
75987;DHT22;75291;44.670;37.810;2024-03-02T02:44:39;8.58;38.14
75987;DHT22;75291;44.670;37.810;2024-03-02T02:45:43;8.57;37.25
75987;DHT22;75291;44.670;37.810;2024-03-02T02:46:48;8.53;38.32
75987;DHT22;75291;44.670;37.810;2024-03-02T02:47:53;8.53;38.92
75987;DHT22;75291;44.670;37.810;2024-03-02T02:48:58;8.51;38.60
75987;DHT22;75291;44.670;37.810;2024-03-02T02:50:03;8.51;39.34
75987;DHT22;75291;44.670;37.810;2024-03-02T02:51:08;8.50;39.23
75987;DHT22;75291;44.670;37.810;2024-03-02T02:52:12;8.50;39.52
75987;DHT22;75291;44.670;37.810;2024-03-02T02:53:16;8.49;38.85
75987;DHT22;75291;44.670;37.810;2024-03-02T02:54:21;8.48;41.12
75987;DHT22;75291;44.670;37.810;2024-03-02T02:55:25;8.50;41.34
75987;DHT22;75291;44.670;37.810;2024-03-02T02:56:29;8.47;40.20
75987;DHT22;75291;44.670;37.810;2024-03-02T02:57:35;8.49;39.99
75987;DHT22;75291;44.670;37.810;2024-03-02T02:58:42;8.48;40.23
75987;DHT22;75291;44.670;37.810;2024-03-02T02:59:47;8.46;40.15
75987;DHT22;75291;44.670;37.810;2024-03-02T03:00:52;8.46;39.72
75987;DHT22;75291;44.670;37.810;2024-03-02T03:01:56;8.46;40.25
75987;DHT22;75291;44.670;37.810;2024-03-02T03:03:00;8.44;40.11
75987;DHT22;75291;44.670;37.810;2024-03-02T03:04:05;8.44;41.08
75987;DHT22;75291;44.670;37.810;2024-03-02T03:05:11;8.45;40.54
75987;DHT22;75291;44.670;37.810;2024-03-02T03:06:15;8.44;40.28
75987;DHT22;75291;44.670;37.810;2024-03-02T03:07:19;8.44;40.71
75987;DHT22;75291;44.670;37.810;2024-03-02T03:08:23;8.43;40.46
75987;DHT22;75291;44.670;37.810;2024-03-02T03:09:27;8.42;42.21
75987;DHT22;75291;44.670;37.810;2024-03-02T03:10:31;8.43;40.59
75987;DHT22;75291;44.670;37.810;2024-03-02T03:11:37;8.42;40.30
75987;DHT22;75291;44.670;37.810;2024-03-02T03:12:42;8.43;39.86
75987;DHT22;75291;44.670;37.810;2024-03-02T03:13:47;8.42;39.99
75987;DHT22;75291;44.670;37.810;2024-03-02T03:14:52;8.43;41.35
75987;DHT22;75291;44.670;37.810;2024-03-02T03:15:57;8.44;40.29
75987;DHT22;75291;44.670;37.810;2024-03-02T03:17:02;8.43;40.43
75987;DHT22;75291;44.670;37.810;2024-03-02T03:18:07;8.43;41.77
75987;DHT22;75291;44.670;37.810;2024-03-02T03:19:14;8.42;40.17
75987;DHT22;75291;44.670;37.810;2024-03-02T03:20:18;8.43;41.26
75987;DHT22;75291;44.670;37.810;2024-03-02T03:21:26;8.39;40.31
75987;DHT22;75291;44.670;37.810;2024-03-02T03:22:31;8.39;44.83
75987;DHT22;75291;44.670;37.810;2024-03-02T03:23:37;8.38;40.36
75987;DHT22;75291;44.670;37.810;2024-03-02T03:24:41;8.41;43.63
75987;DHT22;75291;44.670;37.810;2024-03-02T03:25:45;8.41;41.04
75987;DHT22;75291;44.670;37.810;2024-03-02T03:26:49;8.41;40.13
75987;DHT22;75291;44.670;37.810;2024-03-02T03:27:53;8.41;39.93
75987;DHT22;75291;44.670;37.810;2024-03-02T03:28:57;8.41;40.40
75987;DHT22;75291;44.670;37.810;2024-03-02T03:30:01;8.39;41.30
75987;DHT22;75291;44.670;37.810;2024-03-02T03:31:08;8.38;41.80
75987;DHT22;75291;44.670;37.810;2024-03-02T03:32:12;8.37;40.43
75987;DHT22;75291;44.670;37.810;2024-03-02T03:33:16;8.37;44.91
75987;DHT22;75291;44.670;37.810;2024-03-02T03:34:20;8.35;41.42
75987;DHT22;75291;44.670;37.810;2024-03-02T03:35:25;8.36;42.31
75987;DHT22;75291;44.670;37.810;2024-03-02T03:36:29;8.36;42.26
75987;DHT22;75291;44.670;37.810;2024-03-02T03:37:33;8.36;42.24
75987;DHT22;75291;44.670;37.810;2024-03-02T03:38:37;8.37;43.24
75987;DHT22;75291;44.670;37.810;2024-03-02T03:39:41;8.35;42.52
75987;DHT22;75291;44.670;37.810;2024-03-02T03:40:45;8.36;41.66
75987;DHT22;75291;44.670;37.810;2024-03-02T03:41:50;8.36;41.34
75987;DHT22;75291;44.670;37.810;2024-03-02T03:42:55;8.36;41.61
75987;DHT22;75291;44.670;37.810;2024-03-02T03:44:00;8.38;42.00
75987;DHT22;75291;44.670;37.810;2024-03-02T03:45:05;8.37;42.90
75987;DHT22;75291;44.670;37.810;2024-03-02T03:46:09;8.37;41.70
75987;DHT22;75291;44.670;37.810;2024-03-02T03:47:15;8.35;41.95
75987;DHT22;75291;44.670;37.810;2024-03-02T03:48:21;8.33;41.72
75987;DHT22;75291;44.670;37.810;2024-03-02T03:49:26;8.35;42.19
75987;DHT22;75291;44.670;37.810;2024-03-02T03:50:30;8.34;42.08
75987;DHT22;75291;44.670;37.810;2024-03-02T03:51:34;8.35;42.48
75987;DHT22;75291;44.670;37.810;2024-03-02T03:52:39;8.35;41.55
75987;DHT22;75291;44.670;37.810;2024-03-02T03:53:44;8.32;41.30
75987;DHT22;75291;44.670;37.810;2024-03-02T03:54:48;8.33;42.04
75987;DHT22;75291;44.670;37.810;2024-03-02T03:55:53;8.32;41.57
75987;DHT22;75291;44.670;37.810;2024-03-02T03:56:57;8.32;41.39
75987;DHT22;75291;44.670;37.810;2024-03-02T03:58:02;8.31;40.95
75987;DHT22;75291;44.670;37.810;2024-03-02T03:59:08;8.34;41.46
75987;DHT22;75291;44.670;37.810;2024-03-02T04:00:12;8.34;41.54
75987;DHT22;75291;44.670;37.810;2024-03-02T04:01:17;8.36;42.29
75987;DHT22;75291;44.670;37.810;2024-03-02T04:02:22;8.34;41.17
75987;DHT22;75291;44.670;37.810;2024-03-02T04:03:28;8.36;40.88
75987;DHT22;75291;44.670;37.810;2024-03-02T04:04:33;8.37;42.62
75987;DHT22;75291;44.670;37.810;2024-03-02T04:05:38;8.37;42.07
75987;DHT22;75291;44.670;37.810;2024-03-02T04:06:42;8.37;40.91
75987;DHT22;75291;44.670;37.810;2024-03-02T04:07:47;8.39;41.74
75987;DHT22;75291;44.670;37.810;2024-03-02T04:08:51;8.37;40.61
75987;DHT22;75291;44.670;37.810;2024-03-02T04:09:56;8.38;40.47
75987;DHT22;75291;44.670;37.810;2024-03-02T04:11:01;8.38;40.75
75987;DHT22;75291;44.670;37.810;2024-03-02T04:12:08;8.39;43.83
75987;DHT22;75291;44.670;37.810;2024-03-02T04:13:12;8.41;41.79
75987;DHT22;75291;44.670;37.810;2024-03-02T04:14:17;8.44;41.23
75987;DHT22;75291;44.670;37.810;2024-03-02T04:15:22;8.45;42.41
75987;DHT22;75291;44.670;37.810;2024-03-02T04:16:27;8.46;41.68
75987;DHT22;75291;44.670;37.810;2024-03-02T04:17:33;8.46;41.89
75987;DHT22;75291;44.670;37.810;2024-03-02T04:18:38;8.47;42.19
75987;DHT22;75291;44.670;37.810;2024-03-02T04:19:44;8.48;43.49
75987;DHT22;75291;44.670;37.810;2024-03-02T04:20:48;8.50;42.61
75987;DHT22;75291;44.670;37.810;2024-03-02T04:21:55;8.50;41.13
75987;DHT22;75291;44.670;37.810;2024-03-02T04:23:01;8.50;40.84
75987;DHT22;75291;44.670;37.810;2024-03-02T04:24:06;8.49;40.22
75987;DHT22;75291;44.670;37.810;2024-03-02T04:25:10;8.50;40.88
75987;DHT22;75291;44.670;37.810;2024-03-02T04:26:14;8.52;42.07
75987;DHT22;75291;44.670;37.810;2024-03-02T04:27:23;8.56;40.82
75987;DHT22;75291;44.670;37.810;2024-03-02T04:28:29;8.56;39.59
75987;DHT22;75291;44.670;37.810;2024-03-02T04:29:34;8.59;40.31
75987;DHT22;75291;44.670;37.810;2024-03-02T04:30:38;8.61;40.37
75987;DHT22;75291;44.670;37.810;2024-03-02T04:31:43;8.63;41.00
75987;DHT22;75291;44.670;37.810;2024-03-02T04:32:47;8.66;40.54
75987;DHT22;75291;44.670;37.810;2024-03-02T04:33:52;8.68;40.09
75987;DHT22;75291;44.670;37.810;2024-03-02T04:34:57;8.71;40.28
75987;DHT22;75291;44.670;37.810;2024-03-02T04:36:01;8.72;40.60
75987;DHT22;75291;44.670;37.810;2024-03-02T04:37:05;8.74;40.16
75987;DHT22;75291;44.670;37.810;2024-03-02T04:38:10;8.74;40.17
75987;DHT22;75291;44.670;37.810;2024-03-02T04:39:14;8.76;39.83
75987;DHT22;75291;44.670;37.810;2024-03-02T04:40:19;8.78;40.35
75987;DHT22;75291;44.670;37.810;2024-03-02T04:41:24;8.81;42.60
75987;DHT22;75291;44.670;37.810;2024-03-02T04:42:31;8.85;42.16
75987;DHT22;75291;44.670;37.810;2024-03-02T04:43:47;8.85;39.14
75987;DHT22;75291;44.670;37.810;2024-03-02T04:44:51;8.86;40.70
75987;DHT22;75291;44.670;37.810;2024-03-02T04:45:56;8.88;40.30
75987;DHT22;75291;44.670;37.810;2024-03-02T04:47:01;8.91;38.80
75987;DHT22;75291;44.670;37.810;2024-03-02T04:48:06;8.95;40.13
75987;DHT22;75291;44.670;37.810;2024-03-02T04:49:11;9.02;40.84
75987;DHT22;75291;44.670;37.810;2024-03-02T04:50:16;9.05;43.31
75987;DHT22;75291;44.670;37.810;2024-03-02T04:51:23;9.07;39.27
75987;DHT22;75291;44.670;37.810;2024-03-02T04:52:28;9.08;38.59
75987;DHT22;75291;44.670;37.810;2024-03-02T04:53:34;9.11;39.62
75987;DHT22;75291;44.670;37.810;2024-03-02T04:54:43;9.17;39.29
75987;DHT22;75291;44.670;37.810;2024-03-02T04:56:06;9.20;38.11
75987;DHT22;75291;44.670;37.810;2024-03-02T04:57:29;9.24;37.91
75987;DHT22;75291;44.670;37.810;2024-03-02T04:58:34;9.26;36.69
75987;DHT22;75291;44.670;37.810;2024-03-02T04:59:39;9.34;36.43
75987;DHT22;75291;44.670;37.810;2024-03-02T05:00:44;9.40;36.43
75987;DHT22;75291;44.670;37.810;2024-03-02T05:01:51;9.47;37.96
75987;DHT22;75291;44.670;37.810;2024-03-02T05:02:55;9.54;36.97
75987;DHT22;75291;44.670;37.810;2024-03-02T05:04:00;9.60;36.77
75987;DHT22;75291;44.670;37.810;2024-03-02T05:05:05;9.64;37.25
75987;DHT22;75291;44.670;37.810;2024-03-02T05:06:10;9.68;37.31
75987;DHT22;75291;44.670;37.810;2024-03-02T05:07:15;9.72;36.94
75987;DHT22;75291;44.670;37.810;2024-03-02T05:08:20;9.77;39.23
75987;DHT22;75291;44.670;37.810;2024-03-02T05:09:25;9.81;38.44
75987;DHT22;75291;44.670;37.810;2024-03-02T05:10:30;9.84;37.90
75987;DHT22;75291;44.670;37.810;2024-03-02T05:11:44;9.90;36.24
75987;DHT22;75291;44.670;37.810;2024-03-02T05:13:07;9.93;36.50
75987;DHT22;75291;44.670;37.810;2024-03-02T05:14:17;9.95;36.85
75987;DHT22;75291;44.670;37.810;2024-03-02T05:16:13;10.06;36.67
75987;DHT22;75291;44.670;37.810;2024-03-02T05:17:18;10.11;36.69
75987;DHT22;75291;44.670;37.810;2024-03-02T05:18:23;10.22;36.95
75987;DHT22;75291;44.670;37.810;2024-03-02T05:19:28;10.30;40.54
75987;DHT22;75291;44.670;37.810;2024-03-02T05:20:32;10.38;36.94
75987;DHT22;75291;44.670;37.810;2024-03-02T05:21:37;10.43;37.41
75987;DHT22;75291;44.670;37.810;2024-03-02T05:22:43;10.49;34.90
75987;DHT22;75291;44.670;37.810;2024-03-02T05:23:47;10.55;35.26
75987;DHT22;75291;44.670;37.810;2024-03-02T05:24:52;10.59;36.41
75987;DHT22;75291;44.670;37.810;2024-03-02T05:25:56;10.65;35.38
75987;DHT22;75291;44.670;37.810;2024-03-02T05:27:01;10.70;34.06
75987;DHT22;75291;44.670;37.810;2024-03-02T05:28:05;10.75;35.81
75987;DHT22;75291;44.670;37.810;2024-03-02T05:29:10;10.80;33.93
75987;DHT22;75291;44.670;37.810;2024-03-02T05:30:14;10.81;35.45
75987;DHT22;75291;44.670;37.810;2024-03-02T05:31:20;10.85;34.35
75987;DHT22;75291;44.670;37.810;2024-03-02T05:32:25;10.92;34.13
75987;DHT22;75291;44.670;37.810;2024-03-02T05:33:29;11.00;33.50
75987;DHT22;75291;44.670;37.810;2024-03-02T05:34:35;11.08;35.34
75987;DHT22;75291;44.670;37.810;2024-03-02T05:35:40;11.14;33.42
75987;DHT22;75291;44.670;37.810;2024-03-02T05:36:45;11.23;32.04
75987;DHT22;75291;44.670;37.810;2024-03-02T05:37:50;11.31;31.99
75987;DHT22;75291;44.670;37.810;2024-03-02T05:38:54;11.44;31.39
75987;DHT22;75291;44.670;37.810;2024-03-02T05:39:59;11.54;31.75
75987;DHT22;75291;44.670;37.810;2024-03-02T05:41:04;11.61;31.41
75987;DHT22;75291;44.670;37.810;2024-03-02T05:42:09;11.67;31.21
75987;DHT22;75291;44.670;37.810;2024-03-02T05:43:14;11.73;31.86
75987;DHT22;75291;44.670;37.810;2024-03-02T05:44:20;11.81;32.84
75987;DHT22;75291;44.670;37.810;2024-03-02T05:45:27;11.86;32.56
75987;DHT22;75291;44.670;37.810;2024-03-02T05:47:07;11.96;31.00
75987;DHT22;75291;44.670;37.810;2024-03-02T05:48:15;12.02;32.87
75987;DHT22;75291;44.670;37.810;2024-03-02T05:49:20;12.10;31.25
75987;DHT22;75291;44.670;37.810;2024-03-02T05:50:25;12.08;29.07
75987;DHT22;75291;44.670;37.810;2024-03-02T05:51:30;12.07;28.92
75987;DHT22;75291;44.670;37.810;2024-03-02T05:52:35;12.10;29.46
75987;DHT22;75291;44.670;37.810;2024-03-02T05:53:40;12.11;29.86
75987;DHT22;75291;44.670;37.810;2024-03-02T05:54:46;12.15;29.70
75987;DHT22;75291;44.670;37.810;2024-03-02T05:55:50;12.19;29.26
75987;DHT22;75291;44.670;37.810;2024-03-02T05:56:59;12.22;29.16
75987;DHT22;75291;44.670;37.810;2024-03-02T05:58:20;12.22;28.65
75987;DHT22;75291;44.670;37.810;2024-03-02T05:59:46;12.23;27.46
75987;DHT22;75291;44.670;37.810;2024-03-02T06:00:50;12.21;28.19
75987;DHT22;75291;44.670;37.810;2024-03-02T06:01:55;12.25;29.56
75987;DHT22;75291;44.670;37.810;2024-03-02T06:03:00;12.28;29.03
75987;DHT22;75291;44.670;37.810;2024-03-02T06:04:05;12.27;28.52
75987;DHT22;75291;44.670;37.810;2024-03-02T06:05:09;12.31;29.84
75987;DHT22;75291;44.670;37.810;2024-03-02T06:06:14;12.32;29.36
75987;DHT22;75291;44.670;37.810;2024-03-02T06:07:18;12.34;29.56
75987;DHT22;75291;44.670;37.810;2024-03-02T06:08:23;12.33;29.22
75987;DHT22;75291;44.670;37.810;2024-03-02T06:09:28;12.33;27.91
75987;DHT22;75291;44.670;37.810;2024-03-02T06:10:33;12.30;28.73
75987;DHT22;75291;44.670;37.810;2024-03-02T06:11:39;12.32;28.67
75987;DHT22;75291;44.670;37.810;2024-03-02T06:12:44;12.35;27.33
75987;DHT22;75291;44.670;37.810;2024-03-02T06:13:49;12.36;28.30
75987;DHT22;75291;44.670;37.810;2024-03-02T06:14:53;12.40;27.00
75987;DHT22;75291;44.670;37.810;2024-03-02T06:15:58;12.44;27.35
75987;DHT22;75291;44.670;37.810;2024-03-02T06:17:04;12.52;27.97
75987;DHT22;75291;44.670;37.810;2024-03-02T06:18:09;12.58;28.84
75987;DHT22;75291;44.670;37.810;2024-03-02T06:19:13;12.63;29.18
75987;DHT22;75291;44.670;37.810;2024-03-02T06:20:17;12.71;29.66
75987;DHT22;75291;44.670;37.810;2024-03-02T06:21:23;12.80;27.89
75987;DHT22;75291;44.670;37.810;2024-03-02T06:22:28;12.93;28.88
75987;DHT22;75291;44.670;37.810;2024-03-02T06:23:32;13.09;28.00
75987;DHT22;75291;44.670;37.810;2024-03-02T06:24:38;13.20;27.68
75987;DHT22;75291;44.670;37.810;2024-03-02T06:25:42;13.32;27.42
75987;DHT22;75291;44.670;37.810;2024-03-02T06:26:47;13.45;27.49
75987;DHT22;75291;44.670;37.810;2024-03-02T06:27:53;13.55;28.33
75987;DHT22;75291;44.670;37.810;2024-03-02T06:28:58;13.68;26.81
75987;DHT22;75291;44.670;37.810;2024-03-02T06:30:03;13.81;26.92
75987;DHT22;75291;44.670;37.810;2024-03-02T06:31:08;13.92;26.65
75987;DHT22;75291;44.670;37.810;2024-03-02T06:32:13;14.03;26.55
75987;DHT22;75291;44.670;37.810;2024-03-02T06:33:19;14.13;26.62
75987;DHT22;75291;44.670;37.810;2024-03-02T06:34:23;14.21;26.50
75987;DHT22;75291;44.670;37.810;2024-03-02T06:35:27;14.33;25.86
75987;DHT22;75291;44.670;37.810;2024-03-02T06:36:32;14.43;25.72
75987;DHT22;75291;44.670;37.810;2024-03-02T06:37:38;14.56;25.91
75987;DHT22;75291;44.670;37.810;2024-03-02T06:38:44;14.70;27.71
75987;DHT22;75291;44.670;37.810;2024-03-02T06:39:48;14.82;26.63
75987;DHT22;75291;44.670;37.810;2024-03-02T06:40:51;14.97;26.39
75987;DHT22;75291;44.670;37.810;2024-03-02T06:41:56;15.09;25.83
75987;DHT22;75291;44.670;37.810;2024-03-02T06:43:00;15.17;26.87
75987;DHT22;75291;44.670;37.810;2024-03-02T06:44:05;15.27;26.15
75987;DHT22;75291;44.670;37.810;2024-03-02T06:45:10;15.33;24.25
75987;DHT22;75291;44.670;37.810;2024-03-02T06:46:15;15.40;23.65
75987;DHT22;75291;44.670;37.810;2024-03-02T06:47:19;15.53;23.85
75987;DHT22;75291;44.670;37.810;2024-03-02T06:48:24;15.62;24.42
75987;DHT22;75291;44.670;37.810;2024-03-02T06:49:29;15.77;24.14
75987;DHT22;75291;44.670;37.810;2024-03-02T06:50:34;15.76;23.38
75987;DHT22;75291;44.670;37.810;2024-03-02T06:51:39;15.80;23.88
75987;DHT22;75291;44.670;37.810;2024-03-02T06:52:43;15.81;25.82
75987;DHT22;75291;44.670;37.810;2024-03-02T06:53:48;15.84;23.19
75987;DHT22;75291;44.670;37.810;2024-03-02T06:54:52;15.90;23.70
75987;DHT22;75291;44.670;37.810;2024-03-02T06:55:57;15.90;23.43